Flight Track Log - Related Links

Times and Time Zones

All times are in EDT time to prevent confusion due to time zone crossing. See the CSN6661 flight status page for this flight to view local times or setup timezone preferences in your user account.

Time Position Orientation Groundspeed Altitude Reporting Facility
EDT Latitude Longitude Course Direction KTS MPH feet Rate Location/Type
Thu 10:35:00 PM 29.6446 119.5953 308° West  Level Estimated
Thu 10:36:00 PM 29.7044 119.5076 308° West  Level Estimated
Thu 10:37:00 PM 29.7641 119.4198 308° West  Level Estimated
Thu 10:38:00 PM 29.8238 119.3319 308° West  Level Estimated
Thu 10:39:00 PM 29.8834 119.2439 308° West  Level Estimated
Thu 10:40:00 PM 29.9430 119.1558 308° West  Level Estimated
Thu 10:41:00 PM 30.0025 119.0676 308° West  Level Estimated
Thu 10:42:00 PM 30.0620 118.9793 308° West  Level Estimated
Thu 10:43:00 PM 30.1214 118.8909 308° West  Level Estimated
Thu 10:44:00 PM 30.1807 118.8023 308° West  Level Estimated
Thu 10:45:00 PM 30.2400 118.7137 308° West  Level Estimated
Thu 10:46:00 PM 30.2992 118.6249 308° West  Level Estimated
Thu 10:47:00 PM 30.3584 118.5361 308° West  Level Estimated
Thu 10:48:00 PM 30.4174 118.4471 308° West  Level Estimated
Thu 10:49:00 PM 30.4765 118.3580 308° West  Level Estimated
Thu 10:50:00 PM 30.5354 118.2689 308° West  Level Estimated
Thu 10:51:00 PM 30.5944 118.1796 307° West  Level Estimated
Thu 10:52:00 PM 30.6532 118.0902 307° West  Level Estimated
Thu 10:53:00 PM 30.7120 118.0007 307° West  Level Estimated
Thu 10:54:00 PM 30.7707 117.9111 307° West  Level Estimated
Thu 10:55:00 PM 30.8294 117.8214 307° West  Level Estimated
Thu 10:56:00 PM 30.8880 117.7315 307° West  Level Estimated
Thu 10:57:00 PM 30.9466 117.6416 307° West  Level Estimated
Thu 10:58:00 PM 31.0050 117.5515 307° West  Level Estimated
Thu 10:59:00 PM 31.0634 117.4614 307° West  Level Estimated
Thu 11:00:00 PM 31.1218 117.3711 307° West  Level Estimated
Thu 11:01:00 PM 31.1801 117.2807 307° West  Level Estimated
Thu 11:02:00 PM 31.2383 117.1902 307° West  Level Estimated
Thu 11:03:00 PM 31.2965 117.0996 307° West  Level Estimated
Thu 11:04:00 PM 31.3546 117.0089 307° West  Level Estimated
Thu 11:05:00 PM 31.4126 116.9180 307° West  Level Estimated
Thu 11:06:00 PM 31.4706 116.8271 307° West  Level Estimated
Thu 11:07:00 PM 31.5285 116.7360 307° West  Level Estimated
Thu 11:08:00 PM 31.5864 116.6449 307° West  Level Estimated
Thu 11:09:00 PM 31.6441 116.5536 307° West  Level Estimated
Thu 11:10:00 PM 31.7019 116.4622 307° West  Level Estimated
Thu 11:11:00 PM 31.7595 116.3707 307° West  Level Estimated
Thu 11:12:00 PM 31.8171 116.2791 307° West  Level Estimated
Thu 11:13:00 PM 31.8746 116.1873 306° West  Level Estimated
Thu 11:14:00 PM 31.9321 116.0955 306° West  Level Estimated
Thu 11:15:00 PM 31.9895 116.0035 306° West  Level Estimated
Thu 11:16:00 PM 32.0468 115.9114 306° West  Level Estimated
Thu 11:17:00 PM 32.1040 115.8192 306° West  Level Estimated
Thu 11:18:00 PM 32.1612 115.7269 306° West  Level Estimated
Thu 11:19:00 PM 32.2183 115.6345 306° West  Level Estimated
Thu 11:20:00 PM 32.2754 115.5419 306° West  Level Estimated
Thu 11:21:00 PM 32.3324 115.4493 306° West  Level Estimated
Thu 11:22:00 PM 32.3893 115.3565 306° West  Level Estimated
Thu 11:23:00 PM 32.4461 115.2636 306° West  Level Estimated
Thu 11:24:00 PM 32.5029 115.1706 306° West  Level Estimated
Thu 11:25:00 PM 32.5596 115.0775 306° West  Level Estimated
Thu 11:26:00 PM 32.6163 114.9842 306° West  Level Estimated
Thu 11:27:00 PM 32.6728 114.8908 306° West  Level Estimated
Thu 11:28:00 PM 32.7293 114.7974 306° West  Level Estimated
Thu 11:29:00 PM 32.7858 114.7038 306° West  Level Estimated
Thu 11:30:00 PM 32.8421 114.6100 306° West  Level Estimated
Thu 11:31:00 PM 32.8984 114.5162 306° West  Level Estimated
Thu 11:32:00 PM 32.9547 114.4222 306° West  Level Estimated
Thu 11:33:00 PM 33.0108 114.3281 305° West  Level Estimated
Thu 11:34:00 PM 33.0669 114.2339 305° West  Level Estimated
Thu 11:35:00 PM 33.1229 114.1396 305° West  Level Estimated
Thu 11:36:00 PM 33.1789 114.0452 305° West  Level Estimated
Thu 11:37:00 PM 33.2347 113.9506 305° West  Level Estimated
Thu 11:38:00 PM 33.2905 113.8559 305° West  Level Estimated
Thu 11:39:00 PM 33.3462 113.7611 305° West  Level Estimated
Thu 11:40:00 PM 33.4019 113.6662 305° West  Level Estimated
Thu 11:41:00 PM 33.4575 113.5712 305° West  Level Estimated
Thu 11:42:00 PM 33.5130 113.4760 305° West  Level Estimated
Thu 11:43:00 PM 33.5684 113.3807 305° West  Level Estimated
Thu 11:44:00 PM 33.6238 113.2853 305° West  Level Estimated
Thu 11:45:00 PM 33.6791 113.1898 305° West  Level Estimated
Thu 11:46:00 PM 33.7343 113.0941 305° West  Level Estimated
Thu 11:47:00 PM 33.7895 112.9984 305° West  Level Estimated
Thu 11:48:00 PM 33.8445 112.9024 305° West  Level Estimated
Thu 11:49:00 PM 33.8995 112.8064 305° West  Level Estimated
Thu 11:50:00 PM 33.9544 112.7103 305° West  Level Estimated
Thu 11:51:00 PM 34.0093 112.6140 305° West  Level Estimated
Thu 11:52:00 PM 34.0641 112.5176 304° West  Level Estimated
Thu 11:53:00 PM 34.1188 112.4211 304° West  Level Estimated
Thu 11:54:00 PM 34.1734 112.3244 304° West  Level Estimated
Thu 11:55:00 PM 34.2279 112.2277 304° West  Level Estimated
Thu 11:56:00 PM 34.2824 112.1308 304° West  Level Estimated
Thu 11:57:00 PM 34.3368 112.0337 304° West  Level Estimated
Thu 11:58:00 PM 34.3911 111.9366 304° West  Level Estimated
Thu 11:59:00 PM 34.4453 111.8393 304° West  Level Estimated
Fri 12:00:00 AM 34.4995 111.7419 304° West  Level Estimated
Fri 12:01:00 AM 34.5536 111.6444 304° West  Level Estimated
Fri 12:02:00 AM 34.6076 111.5467 304° West  Level Estimated
Fri 12:03:00 AM 34.6615 111.4489 304° West  Level Estimated
Fri 12:04:00 AM 34.7154 111.3510 304° West  Level Estimated
Fri 12:05:00 AM 34.7691 111.2530 304° West  Level Estimated
Fri 12:06:00 AM 34.8228 111.1548 304° West  Level Estimated
Fri 12:07:00 AM 34.8764 111.0565 304° West  Level Estimated
Fri 12:08:00 AM 34.9300 110.9581 304° West  Level Estimated
Fri 12:09:00 AM 34.9834 110.8595 304° West  Level Estimated
Fri 12:10:00 AM 35.0368 110.7609 303° West  Level Estimated
Fri 12:11:00 AM 35.0901 110.6621 303° West  Level Estimated
Fri 12:12:00 AM 35.1433 110.5631 303° West  Level Estimated
Fri 12:13:00 AM 35.1964 110.4641 303° West  Level Estimated
Fri 12:14:00 AM 35.2495 110.3649 303° West  Level Estimated
Fri 12:15:00 AM 35.3025 110.2655 303° West  Level Estimated
Fri 12:16:00 AM 35.3554 110.1661 303° West  Level Estimated
Fri 12:17:00 AM 35.4082 110.0665 303° West  Level Estimated
Fri 12:18:00 AM 35.4609 109.9668 303° West  Level Estimated
Fri 12:19:00 AM 35.5135 109.8669 303° West  Level Estimated
Fri 12:20:00 AM 35.5661 109.7670 303° West  Level Estimated
Fri 12:21:00 AM 35.6186 109.6668 303° West  Level Estimated
Fri 12:22:00 AM 35.6710 109.5666 303° West  Level Estimated
Fri 12:23:00 AM 35.7233 109.4662 303° West  Level Estimated
Fri 12:24:00 AM 35.7755 109.3657 303° West  Level Estimated
Fri 12:25:00 AM 35.8277 109.2651 303° West  Level Estimated
Fri 12:26:00 AM 35.8797 109.1643 303° West  Level Estimated
Fri 12:27:00 AM 35.9317 109.0634 302° West  Level Estimated
Fri 12:28:00 AM 35.9836 108.9624 302° West  Level Estimated
Fri 12:29:00 AM 36.0354 108.8612 302° West  Level Estimated
Fri 12:30:00 AM 36.0872 108.7599 302° West  Level Estimated
Fri 12:31:00 AM 36.1388 108.6585 302° West  Level Estimated
Fri 12:32:00 AM 36.1903 108.5569 302° West  Level Estimated
Fri 12:33:00 AM 36.2418 108.4552 302° West  Level Estimated
Fri 12:34:00 AM 36.2932 108.3534 302° West  Level Estimated
Fri 12:35:00 AM 36.3445 108.2514 302° West  Level Estimated
Fri 12:36:00 AM 36.3957 108.1493 302° West  Level Estimated
Fri 12:37:00 AM 36.4468 108.0471 302° West  Level Estimated
Fri 12:38:00 AM 36.4978 107.9447 302° West  Level Estimated
Fri 12:39:00 AM 36.5488 107.8422 302° West  Level Estimated
Fri 12:40:00 AM 36.5997 107.7395 302° West  Level Estimated
Fri 12:41:00 AM 36.6504 107.6368 302° West  Level Estimated
Fri 12:42:00 AM 36.7011 107.5339 302° West  Level Estimated
Fri 12:43:00 AM 36.7517 107.4308 302° West  Level Estimated
Fri 12:44:00 AM 36.8022 107.3276 301° West  Level Estimated
Fri 12:45:00 AM 36.8526 107.2243 301° West  Level Estimated
Fri 12:46:00 AM 36.9029 107.1209 301° West  Level Estimated
Fri 12:47:00 AM 36.9532 107.0173 301° West  Level Estimated
Fri 12:48:00 AM 37.0033 106.9135 301° West  Level Estimated
Fri 12:49:00 AM 37.0534 106.8097 301° West  Level Estimated
Fri 12:50:00 AM 37.1033 106.7057 301° West  Level Estimated
Fri 12:51:00 AM 37.1532 106.6015 301° West  Level Estimated
Fri 12:52:00 AM 37.2030 106.4973 301° West  Level Estimated
Fri 12:53:00 AM 37.2527 106.3928 301° West  Level Estimated
Fri 12:54:00 AM 37.3023 106.2883 301° West  Level Estimated
Fri 12:55:00 AM 37.3518 106.1836 301° West  Level Estimated
Fri 12:56:00 AM 37.4012 106.0788 301° West  Level Estimated
Fri 12:57:00 AM 37.4505 105.9738 301° West  Level Estimated
Fri 12:58:00 AM 37.4998 105.8687 301° West  Level Estimated
Fri 12:59:00 AM 37.5489 105.7635 301° West  Level Estimated
Fri 01:00:00 AM 37.5979 105.6581 300° West  Level Estimated
Fri 01:01:00 AM 37.6469 105.5525 300° West  Level Estimated
Fri 01:02:00 AM 37.6957 105.4469 300° West  Level Estimated
Fri 01:03:00 AM 37.7445 105.3411 300° West  Level Estimated
Fri 01:04:00 AM 37.7932 105.2351 300° West  Level Estimated
Fri 01:05:00 AM 37.8417 105.1291 300° West  Level Estimated
Fri 01:06:00 AM 37.8902 105.0229 300° West  Level Estimated
Fri 01:07:00 AM 37.9386 104.9165 300° West  Level Estimated
Fri 01:08:00 AM 37.9869 104.8100 300° West  Level Estimated
Fri 01:09:00 AM 38.0351 104.7033 300° West  Level Estimated
Fri 01:10:00 AM 38.0831 104.5966 300° West  Level Estimated
Fri 01:11:00 AM 38.1311 104.4897 300° West  Level Estimated
Fri 01:12:00 AM 38.1790 104.3826 300° West  Level Estimated
Fri 01:13:00 AM 38.2268 104.2754 300° West  Level Estimated
Fri 01:14:00 AM 38.2746 104.1681 300° West  Level Estimated
Fri 01:15:00 AM 38.3222 104.0606 299° West  Level Estimated
Fri 01:16:00 AM 38.3697 103.9529 299° West  Level Estimated
Fri 01:17:00 AM 38.4171 103.8452 299° West  Level Estimated
Fri 01:18:00 AM 38.4644 103.7373 299° West  Level Estimated
Fri 01:19:00 AM 38.5116 103.6292 299° West  Level Estimated
Fri 01:20:00 AM 38.5587 103.5210 299° West  Level Estimated
Fri 01:21:00 AM 38.6057 103.4127 299° West  Level Estimated
Fri 01:22:00 AM 38.6526 103.3042 299° West  Level Estimated
Fri 01:23:00 AM 38.6994 103.1956 299° West  Level Estimated
Fri 01:24:00 AM 38.7461 103.0869 299° West  Level Estimated
Fri 01:25:00 AM 38.7927 102.9780 299° West  Level Estimated
Fri 01:26:00 AM 38.8392 102.8689 299° West  Level Estimated
Fri 01:27:00 AM 38.8857 102.7598 299° West  Level Estimated
Fri 01:28:00 AM 38.9320 102.6504 299° West  Level Estimated
Fri 01:29:00 AM 38.9782 102.5409 299° West  Level Estimated
Fri 01:30:00 AM 39.0243 102.4313 298° West  Level Estimated
Fri 01:31:00 AM 39.0703 102.3216 298° West  Level Estimated
Fri 01:32:00 AM 39.1161 102.2117 298° West  Level Estimated
Fri 01:33:00 AM 39.1619 102.1016 298° West  Level Estimated
Fri 01:34:00 AM 39.2076 101.9915 298° West  Level Estimated
Fri 01:35:00 AM 39.2532 101.8811 298° West  Level Estimated
Fri 01:36:00 AM 39.2987 101.7707 298° West  Level Estimated
Fri 01:37:00 AM 39.3441 101.6600 298° West  Level Estimated
Fri 01:38:00 AM 39.3893 101.5493 298° West  Level Estimated
Fri 01:39:00 AM 39.4345 101.4384 298° West  Level Estimated
Fri 01:40:00 AM 39.4796 101.3273 298° West  Level Estimated
Fri 01:41:00 AM 39.5245 101.2162 298° West  Level Estimated
Fri 01:42:00 AM 39.5694 101.1048 298° West  Level Estimated
Fri 01:43:00 AM 39.6141 100.9933 298° West  Level Estimated
Fri 01:44:00 AM 39.6587 100.8817 297° West  Level Estimated
Fri 01:45:00 AM 39.7033 100.7700 297° West  Level Estimated
Fri 01:46:00 AM 39.7477 100.6581 297° West  Level Estimated
Fri 01:47:00 AM 39.7920 100.5460 297° West  Level Estimated
Fri 01:48:00 AM 39.8362 100.4338 297° West  Level Estimated
Fri 01:49:00 AM 39.8803 100.3215 297° West  Level Estimated
Fri 01:50:00 AM 39.9243 100.2090 297° West  Level Estimated
Fri 01:51:00 AM 39.9682 100.0964 297° West  Level Estimated
Fri 01:52:00 AM 40.0119 99.9836 297° West  Level Estimated
Fri 01:53:00 AM 40.0556 99.8707 297° West  Level Estimated
Fri 01:54:00 AM 40.0991 99.7576 297° West  Level Estimated
Fri 01:55:00 AM 40.1426 99.6444 297° West  Level Estimated
Fri 01:56:00 AM 40.1859 99.5310 297° West  Level Estimated
Fri 01:57:00 AM 40.2291 99.4175 297° West  Level Estimated
Fri 01:58:00 AM 40.2722 99.3039 296° West  Level Estimated
Fri 01:59:00 AM 40.3152 99.1901 296° West  Level Estimated
Fri 02:00:00 AM 40.3581 99.0762 296° West  Level Estimated
Fri 02:01:00 AM 40.4009 98.9621 296° West  Level Estimated
Fri 02:02:00 AM 40.4436 98.8479 296° West  Level Estimated
Fri 02:03:00 AM 40.4861 98.7335 296° West  Level Estimated
Fri 02:04:00 AM 40.5285 98.6190 296° West  Level Estimated
Fri 02:05:00 AM 40.5709 98.5043 296° West  Level Estimated
Fri 02:06:00 AM 40.6131 98.3895 296° West  Level Estimated
Fri 02:07:00 AM 40.6552 98.2746 296° West  Level Estimated
Fri 02:08:00 AM 40.6972 98.1595 296° West  Level Estimated
Fri 02:09:00 AM 40.7390 98.0443 296° West  Level Estimated
Fri 02:10:00 AM 40.7808 97.9289 296° West  Level Estimated
Fri 02:11:00 AM 40.8224 97.8133 295° West  Level Estimated
Fri 02:12:00 AM 40.8639 97.6977 295° West  Level Estimated
Fri 02:13:00 AM 40.9053 97.5819 295° West  Level Estimated
Fri 02:14:00 AM 40.9466 97.4659 295° West  Level Estimated
Fri 02:15:00 AM 40.9878 97.3498 295° West  Level Estimated
Fri 02:16:00 AM 41.0289 97.2336 295° West  Level Estimated
Fri 02:17:00 AM 41.0698 97.1171 295° West  Level Estimated
Fri 02:18:00 AM 41.1106 97.0006 295° West  Level Estimated
Fri 02:19:00 AM 41.1513 96.8839 295° West  Level Estimated
Fri 02:20:00 AM 41.1919 96.7671 295° West  Level Estimated
Fri 02:21:00 AM 41.2324 96.6501 295° West  Level Estimated
Fri 02:22:00 AM 41.2727 96.5330 295° West  Level Estimated
Fri 02:23:00 AM 41.3130 96.4157 295° West  Level Estimated
Fri 02:24:00 AM 41.3531 96.2983 295° West  Level Estimated
Fri 02:25:00 AM 41.3931 96.1808 294° West  Level Estimated
Fri 02:26:00 AM 41.4329 96.0631 294° West  Level Estimated
Fri 02:27:00 AM 41.4727 95.9452 294° West  Level Estimated
Fri 02:28:00 AM 41.5123 95.8272 294° West  Level Estimated
Fri 02:29:00 AM 41.5518 95.7091 294° West  Level Estimated
Fri 02:30:00 AM 41.5912 95.5908 294° West  Level Estimated
Fri 02:31:00 AM 41.6305 95.4724 294° West  Level Estimated
Fri 02:32:00 AM 41.6696 95.3539 294° West  Level Estimated
Fri 02:33:00 AM 41.7087 95.2352 294° West  Level Estimated
Fri 02:34:00 AM 41.7476 95.1163 294° West  Level Estimated
Fri 02:35:00 AM 41.7864 94.9973 294° West  Level Estimated
Fri 02:36:00 AM 41.8250 94.8782 294° West  Level Estimated
Fri 02:37:00 AM 41.8635 94.7589 293° West  Level Estimated
Fri 02:38:00 AM 41.9020 94.6395 293° West  Level Estimated
Fri 02:39:00 AM 41.9402 94.5199 293° West  Level Estimated
Fri 02:40:00 AM 41.9784 94.4002 293° West  Level Estimated
Fri 02:41:00 AM 42.0164 94.2803 293° West  Level Estimated
Fri 02:42:00 AM 42.0544 94.1603 293° West  Level Estimated
Fri 02:43:00 AM 42.0921 94.0402 293° West  Level Estimated
Fri 02:44:00 AM 42.1298 93.9199 293° West  Level Estimated
Fri 02:45:00 AM 42.1674 93.7995 293° West  Level Estimated
Fri 02:46:00 AM 42.2048 93.6789 293° West  Level Estimated
Fri 02:47:00 AM 42.2420 93.5582 293° West  Level Estimated
Fri 02:48:00 AM 42.2792 93.4373 293° West  Level Estimated
Fri 02:49:00 AM 42.3162 93.3163 293° West  Level Estimated
Fri 02:50:00 AM 42.3531 93.1952 292° West  Level Estimated
Fri 02:51:00 AM 42.3899 93.0739 292° West  Level Estimated
Fri 02:52:00 AM 42.4266 92.9525 292° West  Level Estimated
Fri 02:53:00 AM 42.4631 92.8309 292° West  Level Estimated
Fri 02:54:00 AM 42.4995 92.7092 292° West  Level Estimated
Fri 02:55:00 AM 42.5357 92.5873 292° West  Level Estimated
Fri 02:56:00 AM 42.5719 92.4653 292° West  Level Estimated
Fri 02:57:00 AM 42.6079 92.3432 292° West  Level Estimated
Fri 02:58:00 AM 42.6437 92.2209 292° West  Level Estimated
Fri 02:59:00 AM 42.6795 92.0985 292° West  Level Estimated
Fri 03:00:00 AM 42.7151 91.9760 292° West  Level Estimated
Fri 03:01:00 AM 42.7506 91.8532 292° West  Level Estimated
Fri 03:02:00 AM 42.7859 91.7304 291° West  Level Estimated
Fri 03:03:00 AM 42.8212 91.6074 291° West  Level Estimated
Fri 03:04:00 AM 42.8562 91.4843 291° West  Level Estimated
Fri 03:05:00 AM 42.8912 91.3611 291° West  Level Estimated
Fri 03:06:00 AM 42.9260 91.2377 291° West  Level Estimated
Fri 03:07:00 AM 42.9607 91.1141 291° West  Level Estimated
Fri 03:08:00 AM 42.9953 90.9905 291° West  Level Estimated
Fri 03:09:00 AM 43.0297 90.8666 291° West  Level Estimated
Fri 03:10:00 AM 43.0640 90.7427 291° West  Level Estimated
Fri 03:11:00 AM 43.0981 90.6186 291° West  Level Estimated
Fri 03:12:00 AM 43.1322 90.4944 291° West  Level Estimated
Fri 03:13:00 AM 43.1660 90.3700 291° West  Level Estimated
Fri 03:14:00 AM 43.1998 90.2455 290° West  Level Estimated
Fri 03:15:00 AM 43.2334 90.1209 290° West  Level Estimated
Fri 03:16:00 AM 43.2669 89.9961 290° West  Level Estimated
Fri 03:17:00 AM 43.3003 89.8712 290° West  Level Estimated
Fri 03:18:00 AM 43.3335 89.7461 290° West  Level Estimated
Fri 03:19:00 AM 43.3665 89.6209 290° West  Level Estimated
Fri 03:20:00 AM 43.3995 89.4956 290° West  Level Estimated
Fri 03:21:00 AM 43.4323 89.3701 290° West  Level Estimated
Fri 03:22:00 AM 43.4649 89.2445 290° West  Level Estimated
Fri 03:23:00 AM 43.4975 89.1188 290° West  Level Estimated
Fri 03:24:00 AM 43.5299 88.9929 290° West  Level Estimated
Fri 03:25:00 AM 43.5621 88.8669 289° West  Level Estimated
Fri 03:26:00 AM 43.5942 88.7408 289° West  Level Estimated
Fri 03:27:00 AM 43.6262 88.6145 289° West  Level Estimated
Fri 03:28:00 AM 43.6580 88.4881 289° West  Level Estimated
Fri 03:29:00 AM 43.6897 88.3616 289° West  Level Estimated
Fri 03:30:00 AM 43.7213 88.2349 289° West  Level Estimated
Fri 03:31:00 AM 43.7527 88.1081 289° West  Level Estimated
Fri 03:32:00 AM 43.7840 87.9811 289° West  Level Estimated
Fri 03:33:00 AM 43.8151 87.8541 289° West  Level Estimated
Fri 03:34:00 AM 43.8461 87.7269 289° West  Level Estimated
Fri 03:35:00 AM 43.8769 87.5995 289° West  Level Estimated
Fri 03:36:00 AM 43.9071 87.4742 289° West  Level Estimated
Fri 03:37:00 AM 43.9071 87.4742 North  Level Estimated
Fri 03:38:00 AM 43.9071 87.4742 North  Level Estimated
Fri 03:39:00 AM 43.9071 87.4742 North  Level Estimated
Fri 03:40:00 AM 43.9071 87.4742 North  Level Estimated
Fri 03:41:00 AM 43.9071 87.4742 North  Level Estimated
Fri 03:42:00 AM 43.9071 87.4742 North  Level Estimated
Fri 03:43:00 AM 43.9071 87.4742 North  Level Estimated
Fri 03:44:00 AM 43.9071 87.4742 North  Level Estimated
Fri 03:45:00 AM 43.9071 87.4742 North  Level Estimated
Fri 03:46:00 AM 43.9071 87.4742 North  Level Estimated
Fri 03:47:00 AM 43.9071 87.4742 North  Level Estimated
Fri 03:48:00 AM 43.9071 87.4742 North  Level Estimated
Fri 03:49:00 AM 43.9071 87.4742 North  Level Estimated
Fri 03:50:00 AM 43.9071 87.4742 North  Level Estimated
Fri 03:51:00 AM 43.9071 87.4742 North  Level Estimated
Fri 03:52:00 AM 43.9071 87.4742 North  Level Estimated

Login

Don't have an account? Register now (free) for customized features, flight alerts, and more!